Time;durP1;ratioP1;P1;durP2;ratioP2;P2;SDS_P1;SDS_P2;PMS_P1;PMS_P2;Temp;Humidity;BMP_temperature;BMP_pressure;BME280_temperature;BME280_humidity;BME280_pressure;Samples;Min_cycle;Max_cycle;Signal;HPM_P1;HPM_P2
2022/09/10 00:01:15;;;;;;;6.60;1.50;;;;;;;24.69;42.64;98714.66;4980367;28;20060;-71
2022/09/10 00:03:42;;;;;;;4.60;1.50;;;;;;;24.68;42.43;98705.00;4979891;28;20041;-71
2022/09/10 00:06:08;;;;;;;2.20;1.30;;;;;;;24.63;42.52;98691.47;4980106;28;20053;-71
2022/09/10 00:08:34;;;;;;;5.35;1.65;;;;;;;24.63;42.51;98698.66;4979624;28;20111;-70
2022/09/10 00:11:06;;;;;;;6.35;1.60;;;;;;;24.58;42.50;98696.63;4996199;28;20112;-71
2022/09/10 00:13:32;;;;;;;2.80;1.27;;;;;;;24.59;42.68;98698.28;4964560;28;20076;-71
2022/09/10 00:15:58;;;;;;;3.97;1.30;;;;;;;24.55;42.65;98691.66;4980288;28;20026;-71
2022/09/10 00:18:24;;;;;;;4.63;1.27;;;;;;;24.55;42.65;98697.81;4979942;28;20029;-70
2022/09/10 00:20:51;;;;;;;4.85;1.48;;;;;;;24.53;43.01;98699.88;4979973;28;20033;-71
2022/09/10 00:23:18;;;;;;;2.55;1.50;;;;;;;24.52;43.00;98710.75;4963741;28;20034;-71
2022/09/10 00:25:44;;;;;;;2.80;1.30;;;;;;;24.47;42.82;98715.91;4979793;28;20033;-71
2022/09/10 00:28:10;;;;;;;2.40;1.40;;;;;;;24.44;43.03;98711.81;4995957;28;20109;-71
2022/09/10 00:30:39;;;;;;;2.35;1.42;;;;;;;24.45;43.32;98710.78;4962585;28;20490;-71
2022/09/10 00:33:05;;;;;;;3.80;1.63;;;;;;;24.43;43.35;98706.66;4995645;28;20034;-71
2022/09/10 00:35:32;;;;;;;3.92;1.20;;;;;;;24.39;43.47;98698.28;4979619;28;20401;-72
2022/09/10 00:37:57;;;;;;;2.15;1.38;;;;;;;24.36;43.24;98702.16;4979517;28;20469;-72
2022/09/10 00:40:23;;;;;;;3.03;1.45;;;;;;;24.36;43.31;98698.69;4963225;28;20037;-71
2022/09/10 00:42:48;;;;;;;5.38;1.42;;;;;;;24.31;43.39;98693.97;4979068;28;20065;-71
2022/09/10 00:45:18;;;;;;;3.22;1.42;;;;;;;24.34;43.66;98695.41;4979356;28;20037;-71
2022/09/10 00:47:45;;;;;;;4.07;1.50;;;;;;;24.28;43.44;98694.38;4979565;28;20517;-71
2022/09/10 00:50:21;;;;;;;3.42;1.88;;;;;;;24.30;43.85;98707.50;4979918;28;20033;-71
2022/09/10 00:52:47;;;;;;;6.32;2.00;;;;;;;24.27;43.93;98706.06;4979718;28;20022;-71
2022/09/10 00:55:12;;;;;;;3.75;1.73;;;;;;;24.26;44.11;98707.13;4979098;28;20143;-71
2022/09/10 00:57:38;;;;;;;5.15;2.00;;;;;;;24.25;43.99;98709.97;4978632;28;20049;-71
2022/09/10 01:00:07;;;;;;;6.03;2.00;;;;;;;24.19;44.05;98703.63;4978978;28;20026;-71
2022/09/10 01:02:32;;;;;;;4.35;1.95;;;;;;;24.23;44.22;98702.19;4979692;28;20022;-72
2022/09/10 01:04:59;;;;;;;5.07;1.85;;;;;;;24.20;44.01;98706.06;4994723;28;20536;-71
2022/09/10 01:07:28;;;;;;;5.45;1.58;;;;;;;24.24;44.12;98701.16;4995016;28;20042;-72
2022/09/10 01:09:57;;;;;;;4.75;1.55;;;;;;;24.21;44.31;98701.59;4995452;28;20125;-71
2022/09/10 01:13:03;;;;;;;2.65;1.60;;;;;;;24.18;44.25;98702.81;4979596;28;20084;-71
2022/09/10 01:15:39;;;;;;;3.13;1.17;;;;;;;24.16;44.43;98699.53;4961850;28;20132;-71
2022/09/10 01:18:11;;;;;;;2.85;1.35;;;;;;;24.13;44.51;98689.28;4995386;28;20113;-71
2022/09/10 01:21:14;;;;;;;2.92;1.33;;;;;;;24.11;44.70;98693.16;4994711;28;20494;-71
2022/09/10 01:23:59;;;;;;;3.47;1.52;;;;;;;24.12;44.71;98684.16;4933056;29;20035;-71
2022/09/10 01:26:53;;;;;;;6.03;1.67;;;;;;;24.08;44.83;98672.25;4917280;29;20155;-71
2022/09/10 01:29:34;;;;;;;2.67;1.40;;;;;;;24.09;44.87;98673.91;4932970;29;20047;-71
2022/09/10 01:32:14;;;;;;;5.95;1.70;;;;;;;24.08;45.10;98670.38;4933098;29;20070;-71
2022/09/10 01:34:46;;;;;;;4.00;1.67;;;;;;;24.07;45.03;98673.25;4917697;29;20447;-71
2022/09/10 01:37:34;;;;;;;6.93;2.42;;;;;;;24.02;45.20;98671.22;4917352;29;20039;-71
2022/09/10 01:40:00;;;;;;;4.97;2.70;;;;;;;24.00;44.85;98663.44;4903432;29;20048;-71
2022/09/10 01:42:26;;;;;;;7.63;3.33;;;;;;;24.00;45.01;98673.28;4900953;29;20554;-72
2022/09/10 01:44:52;;;;;;;10.75;3.50;;;;;;;24.01;45.22;98685.59;4916928;29;20054;-72
2022/09/10 01:47:42;;;;;;;5.63;2.80;;;;;;;24.03;45.29;98688.84;4916853;29;20039;-71
2022/09/10 01:50:16;;;;;;;7.85;2.38;;;;;;;24.04;45.30;98690.50;4933185;29;20043;-71
2022/09/10 01:52:53;;;;;;;4.97;2.53;;;;;;;24.02;45.24;98690.72;4932744;29;20035;-71
2022/09/10 01:55:55;;;;;;;4.10;2.00;;;;;;;24.01;45.61;98693.59;4932662;29;20042;-71
2022/09/10 01:58:24;;;;;;;3.50;1.90;;;;;;;23.97;45.53;98682.50;4981045;28;20273;-71
2022/09/10 02:00:52;;;;;;;;;;;;;;;24.02;45.34;98701.38;4994955;28;20037;-71
2022/09/10 02:03:19;;;;;;;6.13;2.72;;;;;;;23.95;45.46;98683.72;4994212;28;19913;-72
2022/09/10 02:05:47;;;;;;;4.53;2.72;;;;;;;23.99;45.66;98691.13;4978403;28;20054;-71
2022/09/10 02:08:19;;;;;;;4.43;2.33;;;;;;;24.00;45.87;98694.59;4978864;28;20044;-71
2022/09/10 02:10:55;;;;;;;4.65;2.65;;;;;;;23.98;45.70;98688.66;4978596;28;20034;-71
2022/09/10 02:13:21;;;;;;;6.05;2.75;;;;;;;24.00;45.66;98681.25;4978547;28;20460;-72
2022/09/10 02:15:48;;;;;;;4.03;2.15;;;;;;;23.97;45.97;98673.69;4977875;28;20046;-72
2022/09/10 02:18:14;;;;;;;4.22;1.80;;;;;;;24.00;45.95;98675.94;4978271;28;20033;-71
2022/09/10 02:20:40;;;;;;;3.03;1.90;;;;;;;23.97;46.04;98673.69;4978138;28;20038;-72
2022/09/10 02:23:05;;;;;;;9.20;3.30;;;;;;;23.95;46.04;98673.88;4978714;28;20104;-71
2022/09/10 02:25:32;;;;;;;12.63;6.70;;;;;;;23.92;45.96;98678.81;4962128;28;20026;-71
2022/09/10 02:27:58;;;;;;;16.02;7.60;;;;;;;23.91;46.23;98679.81;4978438;28;20497;-72
2022/09/10 02:30:23;;;;;;;15.77;7.63;;;;;;;23.93;46.28;98688.47;4979842;28;20032;-72
2022/09/10 02:32:49;;;;;;;14.85;7.25;;;;;;;23.92;46.13;98682.28;4982056;28;20025;-72
2022/09/10 02:35:15;;;;;;;13.10;7.25;;;;;;;23.90;46.33;98681.69;4981884;28;20030;-72
2022/09/10 02:37:42;;;;;;;10.57;5.88;;;;;;;23.92;46.19;98679.63;4997151;28;20050;-72
2022/09/10 02:40:08;;;;;;;11.02;5.60;;;;;;;23.86;46.24;98672.44;4998079;28;20116;-72
2022/09/10 02:42:33;;;;;;;8.35;4.88;;;;;;;23.89;46.32;98676.56;4997838;28;20470;-72
2022/09/10 02:44:59;;;;;;;6.45;3.30;;;;;;;23.85;46.78;98678.81;5015469;28;20036;-72
2022/09/10 02:47:25;;;;;;;4.88;2.95;;;;;;;23.88;46.63;98686.41;4981330;28;20038;-72
2022/09/10 02:49:50;;;;;;;6.80;2.80;;;;;;;23.88;46.54;98680.22;4997198;28;20041;-72
2022/09/10 02:52:16;;;;;;;6.65;2.30;;;;;;;23.87;46.68;98678.63;5013263;28;20421;-72
2022/09/10 02:54:41;;;;;;;4.90;2.30;;;;;;;23.85;46.82;98673.50;4981172;28;20034;-72
2022/09/10 02:57:07;;;;;;;4.70;2.00;;;;;;;23.82;46.86;98671.19;4981247;28;20042;-72
2022/09/10 02:59:32;;;;;;;6.68;2.08;;;;;;;23.81;47.08;98678.34;4997437;28;20470;-72
2022/09/10 03:01:58;;;;;;;3.28;1.60;;;;;;;23.81;47.16;98683.69;4981562;28;20030;-72
2022/09/10 03:04:23;;;;;;;4.85;1.70;;;;;;;23.75;47.34;98671.19;4981337;28;20066;-72
2022/09/10 03:06:52;;;;;;;3.97;1.52;;;;;;;23.79;47.39;98677.75;4964900;28;20050;-72
2022/09/10 03:09:17;;;;;;;3.22;1.50;;;;;;;23.76;47.48;98680.81;4981288;28;20033;-72
2022/09/10 03:11:43;;;;;;;4.28;1.58;;;;;;;23.72;47.56;98682.25;4997389;28;20037;-72
2022/09/10 03:14:09;;;;;;;3.55;1.50;;;;;;;23.69;47.52;98677.34;4996587;28;20061;-72
2022/09/10 03:16:35;;;;;;;2.33;1.60;;;;;;;23.71;48.00;98682.47;4965036;28;20042;-72
2022/09/10 03:19:01;;;;;;;4.72;1.80;;;;;;;23.65;48.01;98674.25;4996483;28;20382;-72
2022/09/10 03:21:28;;;;;;;3.80;1.98;;;;;;;23.58;48.15;98673.44;4997235;28;20084;-72
2022/09/10 03:23:54;;;;;;;3.67;1.80;;;;;;;23.54;48.37;98669.50;4997104;28;20025;-72
2022/09/10 03:26:20;;;;;;;3.63;1.88;;;;;;;23.50;48.41;98668.28;4996992;28;20029;-74
2022/09/10 03:28:46;;;;;;;4.78;2.30;;;;;;;23.49;48.62;98663.97;4964393;28;20509;-72
2022/09/10 03:31:12;;;;;;;4.75;1.98;;;;;;;23.44;48.72;98653.94;4980820;28;20037;-72
2022/09/10 03:33:38;;;;;;;5.45;2.58;;;;;;;23.40;48.93;98654.53;4997017;28;20026;-72
2022/09/10 03:36:04;;;;;;;5.05;2.53;;;;;;;23.36;48.63;98651.47;4997197;28;20030;-72
2022/09/10 03:38:29;;;;;;;6.20;2.72;;;;;;;23.38;48.61;98659.25;4980320;28;20042;-72
2022/09/10 03:40:55;;;;;;;4.65;3.25;;;;;;;23.36;48.61;98666.63;4964077;28;20104;-72
2022/09/10 03:43:21;;;;;;;7.70;3.50;;;;;;;23.30;48.69;98674.38;4963535;28;20049;-69
2022/09/10 03:45:50;;;;;;;8.30;3.90;;;;;;;23.31;48.54;98688.53;4980870;28;20497;-70
2022/09/10 03:48:19;;;;;;;7.45;3.95;;;;;;;23.24;48.78;98680.50;4964251;28;20029;-69
2022/09/10 03:50:45;;;;;;;5.50;3.08;;;;;;;23.26;48.97;98682.97;4980561;28;20478;-70
2022/09/10 03:53:11;;;;;;;6.50;3.63;;;;;;;23.24;48.82;98691.16;4980410;28;20026;-69
2022/09/10 03:55:37;;;;;;;4.10;2.50;;;;;;;23.25;48.88;98702.66;4963796;28;20040;-70
2022/09/10 03:58:02;;;;;;;3.28;2.30;;;;;;;23.24;49.06;98690.34;4980584;28;20109;-69
2022/09/10 04:00:28;;;;;;;3.42;2.00;;;;;;;23.21;49.00;98678.25;4964454;28;20033;-69
2022/09/10 04:02:53;;;;;;;4.03;2.22;;;;;;;23.27;49.00;98682.78;4980388;28;20026;-69
2022/09/10 04:05:19;;;;;;;4.00;2.50;;;;;;;23.25;49.24;98679.50;4979485;28;20453;-69
2022/09/10 04:07:45;;;;;;;5.00;2.63;;;;;;;23.32;48.98;98682.16;4980364;28;20501;-70
2022/09/10 04:10:12;;;;;;;4.70;2.97;;;;;;;23.55;48.87;98689.81;4996216;28;20061;-71
2022/09/10 04:12:38;;;;;;;6.63;2.92;;;;;;;23.84;48.18;98698.50;4981093;28;20042;-68
2022/09/10 04:15:04;;;;;;;6.07;3.40;;;;;;;24.14;47.26;98698.09;4964202;28;20387;-69
2022/09/10 04:17:29;;;;;;;4.72;3.20;;;;;;;24.49;46.52;98687.16;4979936;28;20125;-70
2022/09/10 04:19:55;;;;;;;6.25;3.70;;;;;;;24.79;45.75;98679.50;4963971;28;20048;-70
2022/09/10 04:22:21;;;;;;;6.20;3.40;;;;;;;25.08;45.04;98680.00;4979629;28;20073;-70
2022/09/10 04:24:47;;;;;;;4.93;3.00;;;;;;;25.38;43.89;98679.47;4996153;28;20472;-67
2022/09/10 04:27:12;;;;;;;6.75;3.15;;;;;;;25.72;43.41;98682.78;4996010;28;20077;-68
2022/09/10 04:29:38;;;;;;;6.25;3.63;;;;;;;26.12;42.22;98677.13;4995315;28;20029;-69
2022/09/10 04:32:04;;;;;;;6.07;2.80;;;;;;;26.34;41.95;98675.66;5012333;28;20482;-68
2022/09/10 04:34:29;;;;;;;7.18;3.03;;;;;;;25.87;42.51;98667.25;4979136;28;20128;-68
2022/09/10 04:36:54;;;;;;;6.25;3.17;;;;;;;25.59;43.41;98681.81;4979592;28;20030;-68
2022/09/10 04:39:20;;;;;;;6.15;3.30;;;;;;;25.59;43.56;98681.00;4978889;28;20112;-68
2022/09/10 04:41:45;;;;;;;4.82;3.40;;;;;;;25.62;43.65;98675.25;4979383;28;20049;-69
2022/09/10 04:44:12;;;;;;;4.88;3.30;;;;;;;26.36;42.48;98691.50;4963419;28;20178;-69
2022/09/10 04:46:38;;;;;;;6.18;2.88;;;;;;;27.48;39.85;98693.13;4995150;28;20104;-69
2022/09/10 04:49:03;;;;;;;5.90;3.10;;;;;;;28.23;38.23;98686.41;4979527;28;20034;-69
2022/09/10 04:51:29;;;;;;;6.78;2.97;;;;;;;28.96;36.90;98694.97;4962553;28;20425;-69
2022/09/10 04:53:54;;;;;;;9.18;2.60;;;;;;;29.61;35.86;98695.66;4995204;28;20064;-69
2022/09/10 04:56:20;;;;;;;6.05;2.10;;;;;;;30.22;34.67;98689.66;4995915;28;20045;-69
2022/09/10 04:58:45;;;;;;;4.78;2.47;;;;;;;30.70;33.65;98682.81;4995825;28;20045;-69
2022/09/10 05:01:11;;;;;;;4.70;2.50;;;;;;;31.16;32.64;98685.28;4995565;28;20096;-70
2022/09/10 05:03:37;;;;;;;9.98;3.33;;;;;;;31.64;31.98;98686.31;4979214;28;20555;-70
2022/09/10 05:06:03;;;;;;;7.72;3.05;;;;;;;32.06;31.29;98690.16;4978459;28;20049;-70
2022/09/10 05:08:29;;;;;;;5.88;3.40;;;;;;;32.44;30.59;98683.69;5012710;28;20038;-70
2022/09/10 05:10:55;;;;;;;7.03;3.47;;;;;;;32.90;29.95;98683.09;4963073;28;20109;-71
2022/09/10 05:13:21;;;;;;;29.55;3.20;;;;;;;33.65;28.43;98684.63;4995399;28;20528;-74
2022/09/10 05:15:46;;;;;;;7.85;2.83;;;;;;;34.27;27.47;98685.47;4962667;28;20042;-73
2022/09/10 05:18:12;;;;;;;12.65;2.42;;;;;;;34.83;26.53;98679.09;4995068;28;20045;-72
2022/09/10 05:20:37;;;;;;;11.77;2.60;;;;;;;35.28;25.96;98671.00;4979060;28;20045;-72
2022/09/10 05:23:03;;;;;;;5.38;2.70;;;;;;;35.80;25.23;98682.31;4978839;28;20088;-75
2022/09/10 05:25:28;;;;;;;8.27;2.70;;;;;;;36.10;24.74;98673.06;4962221;28;20042;-72
2022/09/10 05:27:54;;;;;;;6.40;2.67;;;;;;;36.34;24.20;98678.56;4995107;28;20057;-73
2022/09/10 05:30:20;;;;;;;5.43;2.65;;;;;;;36.58;24.05;98673.13;4979189;28;20042;-74
2022/09/10 05:32:46;;;;;;;7.13;2.45;;;;;;;36.86;23.56;98678.81;4978798;28;20030;-73
2022/09/10 05:35:11;;;;;;;6.18;2.50;;;;;;;37.15;23.21;98677.88;4995170;28;20045;-74
2022/09/10 05:37:37;;;;;;;8.27;2.13;;;;;;;37.25;23.30;98680.44;4994614;28;20034;-74
2022/09/10 05:40:04;;;;;;;4.90;2.00;;;;;;;37.48;22.77;98670.59;4962590;28;20034;-74
2022/09/10 05:42:30;;;;;;;5.97;1.90;;;;;;;37.73;22.54;98668.56;4979076;28;20038;-75
2022/09/10 05:44:55;;;;;;;5.40;1.85;;;;;;;37.92;22.44;98675.88;4978722;28;20038;-76
2022/09/10 05:47:21;;;;;;;7.18;2.15;;;;;;;38.01;22.21;98669.44;4994829;28;20057;-74
2022/09/10 05:49:48;;;;;;;4.20;1.77;;;;;;;38.11;21.97;98673.09;4962050;28;20045;-74
2022/09/10 05:52:14;;;;;;;4.22;1.88;;;;;;;38.20;21.98;98674.03;4978436;28;20021;-79
2022/09/10 05:54:40;;;;;;;4.38;1.88;;;;;;;38.26;22.06;98663.88;4977932;28;20033;-75
2022/09/10 05:57:05;;;;;;;8.38;2.42;;;;;;;38.38;22.48;98655.97;5010850;28;20033;-74
2022/09/10 05:59:33;;;;;;;9.38;2.47;;;;;;;38.60;22.25;98662.63;4983310;28;20470;-75
2022/09/10 06:01:59;;;;;;;11.10;2.35;;;;;;;38.77;21.97;98660.13;4983121;28;20058;-77
2022/09/10 06:04:25;;;;;;;11.70;2.40;;;;;;;38.44;22.29;98656.69;4995636;28;20120;-77
2022/09/10 06:06:50;;;;;;;16.38;2.17;;;;;;;37.14;23.58;98649.03;4962398;28;20069;-79
2022/09/10 06:09:16;;;;;;;8.70;1.90;;;;;;;36.35;24.35;98650.28;4993984;28;20402;-78
2022/09/10 06:11:42;;;;;;;7.63;1.95;;;;;;;36.11;25.34;98657.59;4993699;28;20113;-77
2022/09/10 06:14:07;;;;;;;8.85;2.17;;;;;;;35.74;25.51;98665.25;4989356;28;20023;-75
2022/09/10 06:16:33;;;;;;;6.05;2.13;;;;;;;35.38;26.33;98660.09;4972821;28;20042;-81
2022/09/10 06:18:58;;;;;;;9.88;2.03;;;;;;;34.71;27.46;98662.28;4961013;28;20100;-80
2022/09/10 06:21:24;;;;;;;8.60;1.98;;;;;;;34.18;27.84;98668.94;4960690;28;20509;-83
2022/09/10 06:23:53;;;;;;;20.70;2.22;;;;;;;34.08;28.44;98683.31;4977805;28;20038;-79
2022/09/10 06:26:19;;;;;;;26.42;1.80;;;;;;;34.10;28.09;98679.53;4961393;28;20520;-81
2022/09/10 06:28:45;;;;;;;10.07;1.88;;;;;;;35.10;26.63;98672.44;4961237;28;20045;-77
2022/09/10 06:31:15;;;;;;;5.25;1.90;;;;;;;35.38;26.14;98670.13;4962612;28;20088;-77
2022/09/10 06:33:41;;;;;;;12.18;1.90;;;;;;;35.85;25.71;98674.94;4977766;28;20018;-79
2022/09/10 06:36:08;;;;;;;10.57;1.85;;;;;;;36.05;25.42;98676.63;4944952;28;20045;-77
2022/09/10 06:38:34;;;;;;;8.18;1.77;;;;;;;35.54;26.70;98671.63;4960991;28;20022;-81
2022/09/10 06:41:01;;;;;;;8.30;1.80;;;;;;;35.62;26.38;98678.38;4977447;28;20086;-79
2022/09/10 06:43:27;;;;;;;5.33;1.40;;;;;;;35.61;25.97;98687.59;4976863;28;20034;-78
2022/09/10 06:45:52;;;;;;;2.92;1.30;;;;;;;35.22;26.18;98674.78;4976919;28;20036;-80
2022/09/10 06:48:20;;;;;;;13.38;2.13;;;;;;;34.89;27.82;98666.31;4977253;28;20464;-83
2022/09/10 06:50:58;;;;;;;18.73;1.70;;;;;;;34.65;28.48;98674.25;4945093;28;20030;-83
2022/09/10 06:53:24;;;;;;;8.23;1.90;;;;;;;34.87;27.59;98673.91;4942528;28;20034;-81
2022/09/10 06:55:50;;;;;;;7.22;1.80;;;;;;;35.07;28.05;98671.09;4957099;28;20038;-86
2022/09/10 06:58:23;;;;;;;5.40;1.50;;;;;;;35.45;27.47;98671.41;4946633;28;20045;-81
2022/09/10 07:00:49;;;;;;;6.38;1.60;;;;;;;34.96;27.74;98672.25;4995900;28;20102;-82
2022/09/10 07:03:15;;;;;;;6.85;1.75;;;;;;;35.09;27.50;98671.63;4942215;28;20046;-77
2022/09/10 07:05:41;;;;;;;4.03;1.63;;;;;;;35.02;27.61;98664.91;4969774;28;20043;-82
2022/09/10 07:08:08;;;;;;;6.80;1.75;;;;;;;34.44;28.49;98663.47;4944662;28;20108;-84
2022/09/10 07:10:36;;;;;;;4.07;1.60;;;;;;;34.02;28.85;98675.47;4939445;28;20482;-82
2022/09/10 07:13:01;;;;;;;5.78;1.75;;;;;;;33.57;29.61;98677.84;4944618;28;20076;-81
2022/09/10 07:15:27;;;;;;;6.07;2.05;;;;;;;33.18;30.31;98675.66;4956352;28;20418;-79
2022/09/10 07:17:53;;;;;;;9.40;1.90;;;;;;;32.80;30.46;98683.09;4976693;28;20044;-80
2022/09/10 07:20:18;;;;;;;8.82;2.05;;;;;;;32.53;30.89;98684.00;4976441;28;20074;-82
2022/09/10 07:22:44;;;;;;;10.32;1.85;;;;;;;32.36;31.10;98684.19;4956123;28;20030;-80
2022/09/10 07:25:11;;;;;;;5.75;1.67;;;;;;;32.47;31.01;98675.06;4955706;28;20034;-78
2022/09/10 07:27:36;;;;;;;10.82;2.42;;;;;;;32.49;31.29;98674.00;4956033;28;20022;-78
2022/09/10 07:30:02;;;;;;;8.13;2.20;;;;;;;32.52;31.01;98666.16;4976338;28;20030;-78
2022/09/10 07:32:28;;;;;;;4.70;2.13;;;;;;;32.47;31.36;98676.94;4956601;28;20018;-78
2022/09/10 07:34:54;;;;;;;7.63;2.22;;;;;;;32.44;30.90;98666.66;4954721;28;20034;-80
2022/09/10 07:37:21;;;;;;;6.53;2.00;;;;;;;32.54;30.64;98664.00;4939119;28;20196;-77
2022/09/10 07:39:47;;;;;;;9.77;2.03;;;;;;;32.81;30.59;98663.91;4978264;28;20457;-80
2022/09/10 07:42:13;;;;;;;11.13;2.58;;;;;;;34.05;29.64;98659.47;4989991;28;20022;-84
2022/09/10 07:44:38;;;;;;;9.65;2.67;;;;;;;34.73;28.58;98663.66;4972784;28;20034;-84
2022/09/10 07:47:04;;;;;;;7.00;2.10;;;;;;;35.06;27.35;98645.06;4941220;28;20077;-83
2022/09/10 07:49:30;;;;;;;9.07;2.08;;;;;;;35.34;27.38;98656.31;4973353;28;20409;-79
2022/09/10 07:51:55;;;;;;;7.40;1.80;;;;;;;35.82;26.13;98655.66;4957246;28;20034;-83
2022/09/10 07:54:23;;;;;;;7.07;1.50;;;;;;;36.55;25.32;98667.47;4954386;28;20085;-80
2022/09/10 07:56:49;;;;;;;13.32;1.40;;;;;;;37.19;24.42;98657.09;4944817;28;20088;-84
2022/09/10 07:59:14;;;;;;;7.15;1.75;;;;;;;37.59;23.81;98659.50;4960647;28;20022;-81
2022/09/10 08:01:40;;;;;;;19.42;4.93;;;;;;;37.51;24.40;98650.09;4974823;28;20038;-79
2022/09/10 08:04:06;;;;;;;33.50;8.68;;;;;;;37.00;25.26;98661.75;4959834;28;20108;-77
2022/09/10 08:06:32;;;;;;;17.13;4.70;;;;;;;36.99;24.95;98663.66;4991349;28;20136;-77
2022/09/10 08:08:58;;;;;;;16.60;4.65;;;;;;;37.20;24.42;98657.94;4979117;28;20026;-77
2022/09/10 08:11:24;;;;;;;15.00;3.35;;;;;;;37.10;24.04;98650.69;4960264;28;20072;-77
2022/09/10 08:13:51;;;;;;;8.45;2.85;;;;;;;36.74;24.36;98645.78;4961947;28;20025;-76
2022/09/10 08:16:21;;;;;;;8.55;3.00;;;;;;;36.46;24.70;98650.97;4994774;28;20478;-77
2022/09/10 08:18:47;;;;;;;31.17;9.20;;;;;;;36.03;27.46;98659.81;4973226;28;20022;-79
2022/09/10 08:21:13;;;;;;;27.30;7.70;;;;;;;35.60;28.16;98650.69;4978581;28;20033;-76
2022/09/10 08:23:39;;;;;;;27.23;7.28;;;;;;;35.29;28.35;98659.84;4994910;28;20083;-81
2022/09/10 08:26:05;;;;;;;25.13;7.20;;;;;;;34.91;28.39;98662.22;4962592;28;20049;-75
2022/09/10 08:28:31;;;;;;;20.00;6.38;;;;;;;34.53;29.10;98669.16;4961457;28;20026;-77
2022/09/10 08:31:06;;;;;;;20.42;5.30;;;;;;;34.18;29.56;98657.28;4978641;28;20056;-76
2022/09/10 08:33:32;;;;;;;20.58;5.22;;;;;;;34.32;29.23;98666.50;4977142;28;20022;-75
2022/09/10 08:35:58;;;;;;;19.02;6.18;;;;;;;35.40;27.77;98667.94;4962154;28;20113;-77
2022/09/10 08:38:24;;;;;;;19.10;5.47;;;;;;;36.17;26.70;98670.03;4977313;28;20052;-81
2022/09/10 08:40:51;;;;;;;16.20;4.50;;;;;;;36.57;26.00;98659.81;4961116;28;20076;-74
2022/09/10 08:43:18;;;;;;;19.13;4.33;;;;;;;36.81;26.51;98659.81;5011944;28;20034;-76
2022/09/10 08:45:44;;;;;;;11.13;3.80;;;;;;;37.04;25.60;98658.16;4961930;28;20057;-74
2022/09/10 08:48:20;;;;;;;9.90;3.13;;;;;;;36.78;25.14;98654.16;4978052;28;20173;-75
2022/09/10 08:50:49;;;;;;;9.07;2.75;;;;;;;36.62;25.52;98657.03;4975403;28;20025;-77
2022/09/10 08:53:31;;;;;;;7.03;2.78;;;;;;;35.88;26.63;98649.09;4961887;28;20038;-80
2022/09/10 08:56:04;;;;;;;7.10;2.80;;;;;;;35.57;28.48;98653.97;4993554;28;20021;-81
2022/09/10 08:59:02;;;;;;;7.00;2.60;;;;;;;35.08;28.68;98642.88;4962229;28;20498;-80
2022/09/10 09:01:40;;;;;;;4.75;2.47;;;;;;;34.72;28.07;98636.81;5001858;28;20041;-80
2022/09/10 09:04:12;;;;;;;7.57;2.58;;;;;;;34.42;28.61;98625.00;4977899;28;20029;-80
2022/09/10 09:06:40;;;;;;;8.82;2.80;;;;;;;34.08;28.24;98621.03;4961524;28;20520;-78
2022/09/10 09:09:05;;;;;;;8.15;3.15;;;;;;;33.78;27.68;98623.75;4959148;28;20545;-74
2022/09/10 09:11:40;;;;;;;7.07;2.92;;;;;;;33.38;28.50;98615.34;5011047;28;20037;-74
2022/09/10 09:14:17;;;;;;;6.57;3.05;;;;;;;33.09;28.40;98615.03;4991160;28;20109;-74
2022/09/10 09:16:49;;;;;;;8.80;3.17;;;;;;;32.88;28.43;98609.59;4993876;28;20025;-76
2022/09/10 09:19:30;;;;;;;8.00;3.30;;;;;;;32.85;29.91;98612.81;4993371;28;20065;-74
2022/09/10 09:22:09;;;;;;;7.68;3.80;;;;;;;32.63;29.14;98611.13;4992306;28;20084;-76
2022/09/10 09:25:08;;;;;;;15.32;3.70;;;;;;;33.11;29.29;98602.84;4961562;28;20061;-76
2022/09/10 09:27:35;;;;;;;12.00;3.63;;;;;;;33.78;29.36;98602.09;4992421;28;20112;-79
2022/09/10 09:30:02;;;;;;;13.35;3.65;;;;;;;34.00;29.98;98601.78;4977598;28;20105;-80
2022/09/10 09:32:32;;;;;;;10.85;3.55;;;;;;;34.34;28.73;98612.03;4961167;28;20033;-78
2022/09/10 09:35:06;;;;;;;6.75;3.60;;;;;;;34.88;28.91;98615.88;4977376;28;20052;-78
2022/09/10 09:37:33;;;;;;;5.82;3.80;;;;;;;35.18;28.75;98605.94;4992627;28;20045;-78
2022/09/10 09:40:04;;;;;;;10.95;4.10;;;;;;;35.35;28.27;98602.88;4977033;28;20053;-78
2022/09/10 09:42:51;;;;;;;10.20;3.88;;;;;;;35.69;27.79;98602.81;4977647;28;20073;-77
2022/09/10 09:45:42;;;;;;;7.60;3.70;;;;;;;36.12;27.23;98600.25;4977046;28;20033;-78
2022/09/10 09:48:11;;;;;;;9.55;3.90;;;;;;;36.38;25.72;98587.19;4991596;28;20557;-77
2022/09/10 09:50:40;;;;;;;7.97;3.40;;;;;;;36.61;26.15;98583.91;4961457;28;20040;-79
2022/09/10 09:53:06;;;;;;;10.57;3.70;;;;;;;36.76;24.98;98597.34;4975008;28;20030;-79
2022/09/10 09:55:45;;;;;;;11.93;3.45;;;;;;;36.96;26.31;98587.25;4993405;28;20385;-79
2022/09/10 09:58:23;;;;;;;8.88;3.47;;;;;;;36.92;26.37;98587.84;4979088;28;20040;-79
2022/09/10 10:01:04;;;;;;;8.68;3.30;;;;;;;36.95;26.68;98583.75;4992535;28;20099;-77
2022/09/10 10:04:13;;;;;;;5.70;3.00;;;;;;;36.88;25.82;98580.56;5008054;28;20026;-78
2022/09/10 10:06:45;;;;;;;8.38;3.20;;;;;;;36.73;26.05;98576.16;4910037;29;20054;-79
2022/09/10 10:09:20;;;;;;;8.50;3.10;;;;;;;36.91;26.33;98571.81;4932200;29;20057;-79
2022/09/10 10:11:56;;;;;;;12.77;3.22;;;;;;;37.13;25.98;98560.34;4931933;29;20578;-79
2022/09/10 10:14:30;;;;;;;6.60;2.90;;;;;;;37.21;26.27;98546.09;4949358;29;20031;-78
2022/09/10 10:16:56;;;;;;;7.97;2.80;;;;;;;37.33;25.92;98547.53;4949311;29;20533;-79
2022/09/10 10:19:27;;;;;;;6.95;2.90;;;;;;;37.45;26.22;98539.72;4933708;29;20023;-79
2022/09/10 10:21:58;;;;;;;5.07;2.92;;;;;;;37.48;26.18;98547.28;4949707;29;20122;-79
2022/09/10 10:24:31;;;;;;;10.07;2.80;;;;;;;37.50;25.56;98530.63;4934180;29;20141;-78
2022/09/10 10:26:58;;;;;;;9.70;2.78;;;;;;;37.41;25.60;98535.97;4933370;29;20597;-77
2022/09/10 10:29:23;;;;;;;9.47;3.17;;;;;;;37.42;24.81;98541.09;4933645;29;20502;-78
2022/09/10 10:31:49;;;;;;;8.57;3.05;;;;;;;37.46;25.37;98538.59;4933620;29;20281;-78
2022/09/10 10:34:53;;;;;;;8.10;2.97;;;;;;;37.38;24.10;98542.00;4933292;29;20039;-79
2022/09/10 10:37:46;;;;;;;7.43;3.05;;;;;;;37.26;24.62;98528.88;4948653;29;20130;-79
2022/09/10 10:40:17;;;;;;;6.68;2.95;;;;;;;37.18;24.56;98519.47;4935378;28;20043;-80
2022/09/10 10:43:00;;;;;;;10.98;3.42;;;;;;;37.07;24.31;98526.97;4972315;28;20532;-79
2022/09/10 10:46:01;;;;;;;10.57;3.10;;;;;;;36.96;24.05;98519.25;4981781;28;20026;-77
2022/09/10 10:48:29;;;;;;;11.65;3.42;;;;;;;36.68;24.59;98510.97;4945852;28;20102;-78
2022/09/10 10:51:19;;;;;;;7.18;3.50;;;;;;;36.40;24.61;98503.47;4949783;28;20071;-78
2022/09/10 10:54:01;;;;;;;13.48;3.72;;;;;;;36.19;25.02;98496.66;4950554;28;20038;-79
2022/09/10 10:57:02;;;;;;;7.10;3.42;;;;;;;35.99;24.82;98489.56;4935681;29;20156;-79
2022/09/10 10:59:52;;;;;;;9.05;3.90;;;;;;;35.78;25.17;98492.53;4952816;29;20055;-79
2022/09/10 11:02:42;;;;;;;9.10;3.92;;;;;;;35.65;24.93;98488.56;4932897;29;20043;-78
2022/09/10 11:05:31;;;;;;;14.63;3.95;;;;;;;35.54;25.58;98476.22;4946796;28;20511;-79
2022/09/10 11:08:28;;;;;;;12.45;3.90;;;;;;;35.46;25.32;98471.41;4916426;29;20067;-78
2022/09/10 11:11:00;;;;;;;10.13;3.88;;;;;;;35.42;25.94;98468.44;4906079;29;20126;-79
2022/09/10 11:13:44;;;;;;;6.30;3.63;;;;;;;35.37;25.33;98462.28;4898347;29;20040;-78
2022/09/10 11:16:20;;;;;;;10.07;3.83;;;;;;;35.36;25.36;98460.66;4913832;29;20455;-77
2022/09/10 11:18:57;;;;;;;11.23;3.75;;;;;;;35.31;25.66;98450.66;4911770;29;20032;-79
2022/09/10 11:21:55;;;;;;;9.97;3.63;;;;;;;35.21;25.77;98448.84;4916024;29;20036;-80
2022/09/10 11:24:41;;;;;;;12.50;3.88;;;;;;;35.12;25.95;98445.13;4924643;29;20507;-78
2022/09/10 11:27:31;;;;;;;6.43;3.58;;;;;;;34.93;26.14;98439.59;4930602;29;20028;-78
2022/09/10 11:30:02;;;;;;;7.38;3.85;;;;;;;34.87;26.36;98457.00;4926817;29;20043;-78
2022/09/10 11:32:38;;;;;;;9.80;3.75;;;;;;;34.75;26.55;98447.31;4928050;29;20059;-79
2022/09/10 11:35:18;;;;;;;11.93;3.58;;;;;;;34.75;27.31;98451.94;4929375;29;20520;-78
2022/09/10 11:38:19;;;;;;;7.47;3.63;;;;;;;34.72;27.40;98447.06;4918849;29;20119;-77
2022/09/10 11:41:05;;;;;;;6.28;3.58;;;;;;;34.75;27.00;98435.69;4954569;28;20031;-78
2022/09/10 11:44:03;;;;;;;9.50;3.90;;;;;;;34.71;27.27;98434.59;4987093;28;20037;-78
2022/09/10 11:46:38;;;;;;;7.03;3.45;;;;;;;34.60;27.02;98421.13;4975334;28;20117;-78